Time;durP1;ratioP1;P1;durP2;ratioP2;P2;SDS_P1;SDS_P2;PMS_P1;PMS_P2;Temp;Humidity;BMP_temperature;BMP_pressure;BME280_temperature;BME280_humidity;BME280_pressure;Samples;Min_cycle;Max_cycle;Signal;HPM_P1;HPM_P2
2022/03/10 00:00:15;;;;;;;12.63;7.73;;;5.00;99.90;;;;;;5050879;28;20187;-73
2022/03/10 00:02:42;;;;;;;11.27;7.83;;;5.00;99.90;;;;;;5049895;28;20255;-72
2022/03/10 00:05:15;;;;;;;12.13;7.80;;;4.90;99.90;;;;;;5050791;28;20175;-73
2022/03/10 00:07:41;;;;;;;12.83;8.10;;;4.90;99.90;;;;;;5050580;28;20221;-73
2022/03/10 00:10:08;;;;;;;12.17;7.90;;;4.90;99.90;;;;;;5049205;28;20191;-73
2022/03/10 00:12:34;;;;;;;12.87;7.90;;;4.90;99.90;;;;;;5049340;28;20657;-74
2022/03/10 00:15:05;;;;;;;10.83;7.60;;;4.80;99.90;;;;;;5069292;28;20213;-74
2022/03/10 00:17:31;;;;;;;10.37;7.80;;;4.70;99.90;;;;;;5047819;28;20252;-75
2022/03/10 00:19:57;;;;;;;12.83;7.43;;;4.70;99.90;;;;;;5051175;28;20178;-72
2022/03/10 00:22:22;;;;;;;11.03;7.50;;;4.70;99.90;;;;;;5052914;28;20175;-73
2022/03/10 00:24:48;;;;;;;13.30;7.27;;;4.70;99.90;;;;;;5049812;28;20175;-73
2022/03/10 00:27:14;;;;;;;11.87;7.87;;;4.60;99.90;;;;;;5052514;28;20571;-75
2022/03/10 00:29:39;;;;;;;11.83;8.10;;;4.60;99.90;;;;;;5049551;28;20214;-73
2022/03/10 00:32:05;;;;;;;10.77;7.50;;;4.60;99.90;;;;;;5044956;28;20235;-72
2022/03/10 00:34:32;;;;;;;11.63;7.90;;;4.60;99.90;;;;;;5045314;28;20220;-73
2022/03/10 00:36:57;;;;;;;11.73;7.63;;;4.60;99.90;;;;;;5048735;28;20202;-74
2022/03/10 00:39:23;;;;;;;10.67;7.53;;;4.60;99.90;;;;;;5049414;28;20186;-75
2022/03/10 00:41:48;;;;;;;11.13;7.53;;;4.50;99.90;;;;;;5050660;28;20181;-72
2022/03/10 00:44:14;;;;;;;11.00;7.57;;;4.50;99.90;;;;;;5049353;28;20265;-73
2022/03/10 00:46:40;;;;;;;15.00;7.07;;;4.40;99.90;;;;;;5049142;28;20182;-75
2022/03/10 00:49:05;;;;;;;10.33;7.60;;;4.40;99.90;;;;;;5067327;28;20195;-73
2022/03/10 00:51:31;;;;;;;12.80;8.13;;;4.40;99.90;;;;;;5051663;28;20177;-73
2022/03/10 00:53:56;;;;;;;11.37;7.80;;;4.30;99.90;;;;;;5049141;28;20561;-74
2022/03/10 00:56:22;;;;;;;12.70;8.10;;;4.40;99.90;;;;;;5053045;28;20192;-74
2022/03/10 00:58:48;;;;;;;9.93;7.57;;;4.30;99.90;;;;;;5054968;28;20224;-75
2022/03/10 01:01:13;;;;;;;10.33;7.67;;;4.30;99.90;;;;;;5054325;28;20186;-74
2022/03/10 01:03:39;;;;;;;10.13;7.70;;;4.30;99.90;;;;;;5055783;28;20303;-72
2022/03/10 01:06:05;;;;;;;14.10;8.13;;;4.20;99.90;;;;;;5054457;28;20242;-74
2022/03/10 01:08:30;;;;;;;11.93;7.97;;;4.20;99.90;;;;;;5053607;28;20202;-74
2022/03/10 01:10:56;;;;;;;12.47;8.37;;;4.20;99.90;;;;;;5055745;28;20184;-71
2022/03/10 01:13:22;;;;;;;10.50;7.37;;;4.10;99.90;;;;;;5055417;28;20214;-73
2022/03/10 01:15:47;;;;;;;11.37;7.47;;;4.10;99.90;;;;;;5052930;28;20188;-74
2022/03/10 01:18:14;;;;;;;10.47;7.20;;;4.10;99.90;;;;;;5053160;28;20210;-72
2022/03/10 01:20:40;;;;;;;12.00;7.60;;;4.10;99.90;;;;;;5054809;28;20184;-73
2022/03/10 01:23:06;;;;;;;10.47;7.13;;;4.10;99.90;;;;;;5055979;28;20185;-73
2022/03/10 01:25:32;;;;;;;11.67;7.30;;;4.00;99.90;;;;;;5054585;28;20185;-72
2022/03/10 01:27:57;;;;;;;10.93;6.80;;;4.00;99.90;;;;;;5062231;28;20202;-72
2022/03/10 01:30:23;;;;;;;10.70;6.90;;;4.10;99.90;;;;;;5056473;28;20194;-75
2022/03/10 01:32:49;;;;;;;10.27;6.93;;;4.00;99.90;;;;;;5072544;28;20183;-73
2022/03/10 01:35:15;;;;;;;10.27;7.17;;;4.00;99.90;;;;;;5057361;28;20301;-74
2022/03/10 01:37:41;;;;;;;12.83;7.27;;;4.00;99.90;;;;;;5054406;28;20204;-71
2022/03/10 01:40:16;;;;;;;9.83;7.03;;;4.10;99.90;;;;;;5052876;28;20175;-75
2022/03/10 01:42:42;;;;;;;10.50;7.17;;;4.10;99.90;;;;;;5057117;28;20177;-73
2022/03/10 01:45:09;;;;;;;11.67;8.03;;;4.10;99.90;;;;;;5054036;28;20186;-73
2022/03/10 01:47:34;;;;;;;11.13;7.20;;;4.10;99.90;;;;;;5050467;28;20207;-73
2022/03/10 01:50:01;;;;;;;11.03;7.27;;;4.10;99.90;;;;;;5054581;28;20172;-73
2022/03/10 01:52:26;;;;;;;10.40;6.93;;;4.10;99.90;;;;;;5049027;28;20180;-73
2022/03/10 01:54:53;;;;;;;9.87;7.07;;;4.10;99.90;;;;;;5050681;28;20225;-74
2022/03/10 01:57:19;;;;;;;10.83;7.63;;;4.10;99.90;;;;;;5052335;28;20247;-73
2022/03/10 01:59:45;;;;;;;11.37;7.53;;;4.00;99.90;;;;;;5051978;28;20221;-73
2022/03/10 02:02:14;;;;;;;10.13;7.37;;;4.00;99.90;;;;;;5052031;28;20224;-73
2022/03/10 02:04:39;;;;;;;11.20;7.50;;;4.00;99.90;;;;;;5087353;28;20220;-74
2022/03/10 02:10:16;;;;;;;11.17;7.63;;;4.00;99.90;;;;;;5048905;28;20192;-75
2022/03/10 02:12:38;;;;;;;11.83;7.03;;;4.10;99.90;;;;;;5070081;28;20201;-73
2022/03/10 02:18:00;;;;;;;11.67;7.87;;;4.10;99.90;;;;;;5071102;28;20592;-74
2022/03/10 02:20:26;;;;;;;9.40;7.00;;;4.10;99.90;;;;;;5050459;28;20655;-73
2022/03/10 02:22:52;;;;;;;12.63;8.10;;;4.00;99.90;;;;;;5050541;28;20255;-74
2022/03/10 02:25:22;;;;;;;10.67;7.03;;;4.00;99.90;;;;;;5054591;28;20186;-74
2022/03/10 02:27:55;;;;;;;10.53;7.30;;;4.00;99.90;;;;;;5054461;28;20328;-73
2022/03/10 02:30:23;;;;;;;14.10;7.37;;;4.00;99.90;;;;;;5049637;28;20187;-73
2022/03/10 02:32:49;;;;;;;9.97;6.83;;;4.00;99.90;;;;;;5050718;28;20694;-74
2022/03/10 02:35:15;;;;;;;10.67;7.40;;;4.00;99.90;;;;;;5051026;28;20685;-74
2022/03/10 02:37:41;;;;;;;10.57;7.30;;;4.00;99.90;;;;;;5051233;28;20723;-74
2022/03/10 02:40:09;;;;;;;9.90;6.83;;;4.00;99.90;;;;;;5056983;28;20300;-75
2022/03/10 02:42:35;;;;;;;10.97;7.07;;;4.00;99.90;;;;;;5051324;28;20202;-74
2022/03/10 02:45:01;;;;;;;11.00;7.20;;;4.00;99.90;;;;;;5053562;28;20244;-74
2022/03/10 02:47:28;;;;;;;10.80;7.77;;;4.00;99.90;;;;;;5053044;28;20206;-74
2022/03/10 02:49:53;;;;;;;13.67;7.13;;;4.00;99.90;;;;;;5070555;28;20198;-75
2022/03/10 02:52:19;;;;;;;10.73;6.87;;;4.00;99.90;;;;;;5053937;28;20228;-74
2022/03/10 02:54:45;;;;;;;10.77;7.27;;;4.00;99.90;;;;;;5052631;28;20186;-74
2022/03/10 02:57:11;;;;;;;12.50;7.50;;;4.00;99.90;;;;;;5053244;28;20186;-75
2022/03/10 02:59:37;;;;;;;11.00;7.33;;;3.90;99.90;;;;;;5056456;28;20659;-73
2022/03/10 03:02:04;;;;;;;10.53;7.30;;;3.90;99.90;;;;;;5053541;28;20305;-74
2022/03/10 03:04:29;;;;;;;10.73;7.17;;;3.90;99.90;;;;;;5052231;28;20194;-72
2022/03/10 03:06:55;;;;;;;10.60;7.90;;;3.90;99.90;;;;;;5050028;28;20306;-74
2022/03/10 03:09:21;;;;;;;8.87;6.90;;;3.90;99.90;;;;;;5052354;28;20208;-76
2022/03/10 03:11:47;;;;;;;10.43;7.03;;;3.80;99.90;;;;;;5053941;28;20180;-75
2022/03/10 03:14:12;;;;;;;11.17;7.47;;;3.80;99.90;;;;;;5054554;28;20276;-74
2022/03/10 03:16:39;;;;;;;11.27;8.03;;;3.80;99.90;;;;;;5052881;28;20213;-74
2022/03/10 03:19:05;;;;;;;14.83;8.57;;;3.80;99.90;;;;;;5048189;28;20201;-73
2022/03/10 03:21:31;;;;;;;10.27;7.80;;;3.80;99.90;;;;;;5051018;28;20188;-74
2022/03/10 03:23:56;;;;;;;11.60;7.30;;;3.70;99.90;;;;;;5051181;28;20180;-74
2022/03/10 03:26:22;;;;;;;14.27;7.70;;;3.70;99.90;;;;;;5051296;28;20199;-73
2022/03/10 03:28:48;;;;;;;13.17;8.47;;;3.70;99.90;;;;;;5053706;28;20285;-74
2022/03/10 03:31:14;;;;;;;10.67;7.17;;;3.70;99.90;;;;;;5070962;28;20191;-74
2022/03/10 03:33:40;;;;;;;10.33;7.27;;;3.60;99.90;;;;;;5052553;28;20201;-73
2022/03/10 03:36:06;;;;;;;12.27;7.57;;;3.60;99.90;;;;;;5049923;28;20224;-73
2022/03/10 03:38:32;;;;;;;12.23;8.23;;;3.50;99.90;;;;;;5053838;28;20237;-73
2022/03/10 03:40:59;;;;;;;13.70;7.97;;;3.50;99.90;;;;;;5058476;28;20180;-73
2022/03/10 03:43:25;;;;;;;10.70;7.53;;;3.50;99.90;;;;;;5064650;28;20191;-74
2022/03/10 03:45:51;;;;;;;12.93;8.17;;;3.50;99.90;;;;;;5063681;28;20199;-74
2022/03/10 03:48:17;;;;;;;12.83;7.93;;;3.50;99.90;;;;;;5055956;28;20264;-74
2022/03/10 03:50:42;;;;;;;11.90;7.87;;;3.40;99.90;;;;;;5052134;28;20287;-74
2022/03/10 03:53:08;;;;;;;13.67;7.33;;;3.40;99.90;;;;;;5052052;28;20189;-74
2022/03/10 03:55:34;;;;;;;14.00;8.00;;;3.40;99.90;;;;;;5084242;28;20216;-74
2022/03/10 03:57:59;;;;;;;10.80;7.53;;;3.40;99.90;;;;;;5053321;28;20208;-74
2022/03/10 04:00:25;;;;;;;10.93;7.33;;;3.40;99.90;;;;;;5051800;28;20190;-73
2022/03/10 04:02:51;;;;;;;9.80;7.07;;;3.40;99.90;;;;;;5051593;28;20604;-74
2022/03/10 04:05:18;;;;;;;12.70;8.73;;;3.40;99.90;;;;;;5050361;28;20273;-73
2022/03/10 04:07:43;;;;;;;13.67;8.17;;;3.40;99.90;;;;;;5049441;28;20765;-76
2022/03/10 04:10:09;;;;;;;10.93;8.10;;;3.40;99.90;;;;;;5068781;28;20180;-74
2022/03/10 04:12:36;;;;;;;11.97;8.30;;;3.40;99.90;;;;;;5052532;28;20203;-76
2022/03/10 04:15:02;;;;;;;10.80;8.00;;;3.30;99.90;;;;;;5053253;28;20179;-74
2022/03/10 04:17:28;;;;;;;14.93;8.20;;;3.30;99.90;;;;;;5051676;28;20201;-75
2022/03/10 04:19:54;;;;;;;12.57;8.10;;;3.30;99.90;;;;;;5081163;28;20179;-75
2022/03/10 04:22:19;;;;;;;12.23;7.83;;;3.30;99.90;;;;;;5071856;28;20344;-74
2022/03/10 04:24:45;;;;;;;12.00;8.27;;;3.30;99.90;;;;;;5070594;28;20193;-74
2022/03/10 04:27:11;;;;;;;13.37;7.57;;;3.20;99.90;;;;;;5065988;28;20541;-74
2022/03/10 04:29:37;;;;;;;11.47;8.47;;;3.20;99.90;;;;;;5068039;28;20186;-72
2022/03/10 04:32:03;;;;;;;13.83;8.17;;;3.20;99.90;;;;;;5068970;28;20175;-74
2022/03/10 04:34:29;;;;;;;11.63;7.67;;;3.10;99.90;;;;;;5059305;28;20178;-75
2022/03/10 04:36:55;;;;;;;12.43;8.13;;;3.10;99.90;;;;;;5075299;28;20260;-75
2022/03/10 04:39:21;;;;;;;11.97;7.93;;;3.10;99.90;;;;;;5074568;28;20206;-74
2022/03/10 04:41:47;;;;;;;13.50;8.07;;;3.10;99.90;;;;;;5066842;28;20698;-75
2022/03/10 04:44:13;;;;;;;12.23;8.70;;;3.10;99.90;;;;;;5055242;28;20180;-74
2022/03/10 04:46:38;;;;;;;10.80;8.53;;;3.10;99.90;;;;;;5061155;28;20189;-75
2022/03/10 04:49:05;;;;;;;12.00;8.40;;;3.10;99.90;;;;;;5068363;28;20209;-77
2022/03/10 04:51:31;;;;;;;11.77;7.87;;;3.00;99.90;;;;;;5074151;28;20168;-74
2022/03/10 04:53:57;;;;;;;13.60;8.13;;;3.00;99.90;;;;;;5054150;28;20184;-74
2022/03/10 04:56:23;;;;;;;12.83;8.60;;;3.00;99.90;;;;;;5050741;28;20203;-77
2022/03/10 04:58:49;;;;;;;14.50;8.73;;;3.00;99.90;;;;;;5064672;28;20200;-75
2022/03/10 05:01:15;;;;;;;14.80;8.10;;;3.00;99.90;;;;;;5055111;28;20203;-73
2022/03/10 05:03:41;;;;;;;11.47;8.20;;;3.00;99.90;;;;;;5060508;28;20172;-73
2022/03/10 05:06:07;;;;;;;12.10;7.83;;;2.90;99.90;;;;;;5073922;28;20340;-73
2022/03/10 05:08:33;;;;;;;17.07;8.00;;;2.90;99.90;;;;;;5063666;28;20191;-74
2022/03/10 05:10:59;;;;;;;13.60;8.63;;;2.90;99.90;;;;;;5073650;28;20174;-74
2022/03/10 05:13:25;;;;;;;13.70;8.50;;;2.90;99.90;;;;;;5068238;28;20183;-74
2022/03/10 05:15:51;;;;;;;14.03;8.37;;;2.80;99.90;;;;;;5064525;28;20196;-74
2022/03/10 05:18:16;;;;;;;11.57;7.83;;;2.80;99.90;;;;;;5062231;28;20198;-73
2022/03/10 05:20:42;;;;;;;11.90;8.27;;;2.80;99.90;;;;;;5065977;28;20196;-74
2022/03/10 05:23:08;;;;;;;14.23;7.43;;;2.80;99.90;;;;;;5071767;28;20231;-73
2022/03/10 05:25:38;;;;;;;12.77;8.47;;;2.80;99.90;;;;;;5058957;28;20174;-74
2022/03/10 05:28:06;;;;;;;11.27;8.10;;;2.70;99.90;;;;;;5063268;28;20207;-73
2022/03/10 05:30:32;;;;;;;12.37;7.97;;;2.70;99.90;;;;;;5060142;28;20176;-74
2022/03/10 05:32:58;;;;;;;12.33;8.20;;;2.70;99.90;;;;;;5062289;28;20226;-72
2022/03/10 05:35:25;;;;;;;11.83;8.13;;;2.70;99.90;;;;;;5073666;28;20195;-73
2022/03/10 05:38:06;;;;;;;;;;;;;;;;;;;;;
2022/03/10 05:40:32;;;;;;;11.67;7.90;;;2.70;99.90;;;;;;5076740;28;20207;-76
2022/03/10 05:43:01;;;;;;;13.67;8.70;;;2.70;99.90;;;;;;5061759;28;20662;-76
2022/03/10 05:45:26;;;;;;;12.20;8.00;;;2.60;99.90;;;;;;5061763;28;20267;-76
2022/03/10 05:47:57;;;;;;;11.03;8.30;;;2.60;99.90;;;;;;5057702;28;20278;-75
2022/03/10 05:50:25;;;;;;;12.67;8.17;;;2.60;99.90;;;;;;5062254;28;20197;-75
2022/03/10 05:52:51;;;;;;;12.43;8.83;;;2.60;99.90;;;;;;5067378;28;20177;-74
2022/03/10 05:55:18;;;;;;;11.67;8.70;;;2.60;99.90;;;;;;5062823;28;20210;-76
2022/03/10 05:57:44;;;;;;;13.63;8.77;;;2.60;99.90;;;;;;5052840;28;20281;-74
2022/03/10 06:00:11;;;;;;;17.00;9.20;;;2.60;99.90;;;;;;5059660;28;20202;-73
2022/03/10 06:02:38;;;;;;;12.13;8.07;;;2.60;99.90;;;;;;5066699;28;20183;-74
2022/03/10 06:05:04;;;;;;;12.37;8.00;;;2.60;99.90;;;;;;5059397;28;20178;-74
2022/03/10 06:07:31;;;;;;;19.23;8.80;;;2.60;99.90;;;;;;5064344;28;20266;-74
2022/03/10 06:09:57;;;;;;;14.50;8.43;;;2.60;99.90;;;;;;5070715;28;20174;-74
2022/03/10 06:12:23;;;;;;;14.10;8.17;;;2.60;99.90;;;;;;5070937;28;20204;-74
2022/03/10 06:14:53;;;;;;;13.30;8.77;;;2.60;99.90;;;;;;5077100;28;20197;-74
2022/03/10 06:17:20;;;;;;;13.63;8.80;;;2.60;99.90;;;;;;5064322;28;20186;-73
2022/03/10 06:19:45;;;;;;;13.47;8.40;;;2.50;99.90;;;;;;5063200;28;20186;-74
2022/03/10 06:22:18;;;;;;;10.30;7.77;;;2.50;99.90;;;;;;5067668;28;20171;-73
2022/03/10 06:24:45;;;;;;;10.90;8.17;;;2.50;99.90;;;;;;5083716;28;20256;-75
2022/03/10 06:27:11;;;;;;;12.43;8.13;;;2.50;99.90;;;;;;5060071;28;20187;-74
2022/03/10 06:29:41;;;;;;;12.90;8.43;;;2.50;99.90;;;;;;5073512;28;20312;-74
2022/03/10 06:32:07;;;;;;;14.67;8.03;;;2.50;99.90;;;;;;5068756;28;20178;-73
2022/03/10 06:34:34;;;;;;;11.77;7.93;;;2.60;99.90;;;;;;5060642;28;20183;-75
2022/03/10 06:37:00;;;;;;;14.77;8.60;;;2.50;99.90;;;;;;5067712;28;20198;-75
2022/03/10 06:39:26;;;;;;;12.73;8.63;;;2.50;99.90;;;;;;5061044;28;20174;-75
2022/03/10 06:41:52;;;;;;;11.30;8.20;;;2.60;99.90;;;;;;5069958;28;20300;-74
2022/03/10 06:44:17;;;;;;;11.77;7.93;;;2.50;99.90;;;;;;5060406;28;20177;-75
2022/03/10 06:46:43;;;;;;;11.30;7.93;;;2.60;99.90;;;;;;5058052;28;20175;-74
2022/03/10 06:49:09;;;;;;;13.23;8.20;;;2.60;99.90;;;;;;5080910;28;20213;-75
2022/03/10 06:51:35;;;;;;;11.73;7.90;;;2.60;99.90;;;;;;5057006;28;20211;-74
2022/03/10 06:54:00;;;;;;;15.53;8.13;;;2.60;99.90;;;;;;5065069;28;20171;-74
2022/03/10 06:56:26;;;;;;;13.67;7.80;;;2.60;99.90;;;;;;5069051;28;20223;-74
2022/03/10 06:58:52;;;;;;;10.93;7.93;;;2.60;99.90;;;;;;5083861;28;20189;-74
2022/03/10 07:01:19;;;;;;;10.73;7.53;;;2.70;99.90;;;;;;5084075;28;20179;-74
2022/03/10 07:03:45;;;;;;;11.73;7.67;;;2.70;99.90;;;;;;5054044;28;20184;-74
2022/03/10 07:06:10;;;;;;;11.70;8.07;;;2.70;99.90;;;;;;5073129;28;20188;-75
2022/03/10 07:08:36;;;;;;;12.20;7.93;;;2.70;99.90;;;;;;5055176;28;20199;-73
2022/03/10 07:11:02;;;;;;;11.63;7.50;;;2.70;99.90;;;;;;5064404;28;20182;-74
2022/03/10 07:13:28;;;;;;;13.30;8.00;;;2.70;99.90;;;;;;5049757;28;20184;-74
2022/03/10 07:15:53;;;;;;;11.67;8.13;;;2.70;99.90;;;;;;5091419;28;20202;-75
2022/03/10 07:18:19;;;;;;;12.63;8.20;;;2.80;99.90;;;;;;5041537;28;20276;-73
2022/03/10 07:20:45;;;;;;;11.20;7.73;;;2.80;99.90;;;;;;5076911;28;20624;-73
2022/03/10 07:23:11;;;;;;;12.47;7.93;;;2.90;99.90;;;;;;5055801;28;20194;-75
2022/03/10 07:25:37;;;;;;;12.23;8.17;;;2.90;99.90;;;;;;5063123;28;20203;-74
2022/03/10 07:28:02;;;;;;;10.57;7.90;;;2.90;99.90;;;;;;5064488;28;20610;-74
2022/03/10 07:30:28;;;;;;;12.53;7.73;;;3.00;99.90;;;;;;5078434;28;20180;-74
2022/03/10 07:32:54;;;;;;;13.17;8.33;;;3.00;99.90;;;;;;5054395;28;20171;-74
2022/03/10 07:35:19;;;;;;;10.30;7.77;;;3.00;99.90;;;;;;5060159;28;20265;-73
2022/03/10 07:37:46;;;;;;;11.97;7.50;;;3.10;99.90;;;;;;5078466;28;20192;-74
2022/03/10 07:40:13;;;;;;;12.10;8.03;;;3.10;99.90;;;;;;5061039;28;20163;-74
2022/03/10 07:42:38;;;;;;;14.87;7.17;;;3.20;99.90;;;;;;5105942;28;20168;-74
2022/03/10 07:45:04;;;;;;;11.80;7.17;;;3.30;99.90;;;;;;5072184;28;20190;-74
2022/03/10 07:47:30;;;;;;;11.90;7.97;;;3.30;99.90;;;;;;5067225;28;20567;-72
2022/03/10 07:49:57;;;;;;;10.23;7.57;;;3.40;99.90;;;;;;5071506;28;20168;-71
2022/03/10 07:52:23;;;;;;;15.20;7.93;;;3.50;99.90;;;;;;5086810;28;20265;-71
2022/03/10 07:54:48;;;;;;;11.57;7.30;;;3.60;99.90;;;;;;5066577;28;20262;-73
2022/03/10 07:57:14;;;;;;;12.10;7.43;;;3.70;99.90;;;;;;5060904;28;20205;-72
2022/03/10 07:59:40;;;;;;;11.87;7.13;;;3.80;99.90;;;;;;5067824;28;20255;-72
2022/03/10 08:02:05;;;;;;;12.23;7.37;;;3.90;99.90;;;;;;5063038;28;20207;-71
2022/03/10 08:04:31;;;;;;;11.37;7.17;;;4.00;99.90;;;;;;5063016;28;20169;-71
2022/03/10 08:06:57;;;;;;;8.87;7.10;;;4.10;99.90;;;;;;5065846;28;20231;-71
2022/03/10 08:09:22;;;;;;;14.47;7.20;;;4.20;99.90;;;;;;5068358;28;20198;-72
2022/03/10 08:11:48;;;;;;;11.57;7.13;;;4.30;99.90;;;;;;5068462;28;20176;-73
2022/03/10 08:14:13;;;;;;;9.80;7.10;;;4.40;99.90;;;;;;5064216;28;20217;-73
2022/03/10 08:16:40;;;;;;;11.13;7.50;;;4.50;99.90;;;;;;5047128;28;20241;-72
2022/03/10 08:19:09;;;;;;;10.43;6.80;;;4.60;99.90;;;;;;5048304;28;20201;-72
2022/03/10 08:21:34;;;;;;;10.97;7.07;;;4.60;99.90;;;;;;5049344;28;20607;-71
2022/03/10 08:24:00;;;;;;;12.10;7.57;;;4.70;99.90;;;;;;5066759;28;20176;-72
2022/03/10 08:26:26;;;;;;;9.47;7.20;;;4.70;99.90;;;;;;5049302;28;20217;-72
2022/03/10 08:28:53;;;;;;;11.43;6.73;;;4.80;99.90;;;;;;5048705;28;20263;-72
2022/03/10 08:31:19;;;;;;;11.27;7.80;;;4.80;99.90;;;;;;5050323;28;20561;-72
2022/03/10 08:33:45;;;;;;;10.30;7.20;;;4.90;99.90;;;;;;5049724;28;20200;-71
2022/03/10 08:36:11;;;;;;;10.30;6.83;;;5.00;99.90;;;;;;5048847;28;20218;-72
2022/03/10 08:38:37;;;;;;;10.90;6.77;;;5.10;99.90;;;;;;5050263;28;20213;-73
2022/03/10 08:41:03;;;;;;;9.77;7.47;;;5.10;99.90;;;;;;5048019;28;20183;-72
2022/03/10 08:43:31;;;;;;;10.10;7.23;;;5.20;99.90;;;;;;5049764;28;20271;-73
2022/03/10 08:45:57;;;;;;;10.67;7.20;;;5.30;99.90;;;;;;5051742;28;20184;-73
2022/03/10 08:48:23;;;;;;;11.50;7.17;;;5.40;99.90;;;;;;5054905;28;20210;-73
2022/03/10 08:50:49;;;;;;;11.33;7.20;;;5.50;99.90;;;;;;5053175;28;20193;-72
2022/03/10 08:53:15;;;;;;;9.00;6.83;;;5.60;99.90;;;;;;5069717;28;20179;-72
2022/03/10 08:55:40;;;;;;;10.43;7.30;;;5.70;99.90;;;;;;5049109;28;20260;-73
2022/03/10 08:58:06;;;;;;;9.70;7.10;;;5.70;99.90;;;;;;5048929;28;20212;-73
2022/03/10 09:00:32;;;;;;;8.10;6.70;;;5.90;99.90;;;;;;5049471;28;20175;-73
2022/03/10 09:02:59;;;;;;;10.43;6.63;;;5.90;99.90;;;;;;5048880;28;20281;-73
2022/03/10 09:05:25;;;;;;;11.33;6.90;;;6.10;99.90;;;;;;5048315;28;20183;-71
2022/03/10 09:07:51;;;;;;;10.13;6.93;;;6.20;99.90;;;;;;5049507;28;20207;-72
2022/03/10 09:10:17;;;;;;;10.03;6.60;;;6.30;99.90;;;;;;5050623;28;20190;-72
2022/03/10 09:12:42;;;;;;;9.23;6.63;;;6.40;99.90;;;;;;5048542;28;20179;-71
2022/03/10 09:15:09;;;;;;;12.20;6.67;;;6.60;99.90;;;;;;5048615;28;20549;-72
2022/03/10 09:17:35;;;;;;;8.47;6.53;;;6.70;99.90;;;;;;5049144;28;20213;-71
2022/03/10 09:20:00;;;;;;;10.33;6.30;;;6.90;99.90;;;;;;5054092;28;20174;-72
2022/03/10 09:22:26;;;;;;;9.87;6.53;;;7.00;99.90;;;;;;5053101;28;20182;-73
2022/03/10 09:24:52;;;;;;;9.77;6.83;;;7.10;99.90;;;;;;5052529;28;20185;-72
2022/03/10 09:27:18;;;;;;;8.83;6.33;;;7.30;99.90;;;;;;5053211;28;20191;-71
2022/03/10 09:29:44;;;;;;;12.80;6.57;;;7.40;99.90;;;;;;5051956;28;20240;-71
2022/03/10 09:32:11;;;;;;;9.83;6.40;;;7.40;99.90;;;;;;5058588;28;20178;-72
2022/03/10 09:34:36;;;;;;;8.73;5.87;;;7.50;99.90;;;;;;5070933;28;20194;-71
2022/03/10 09:37:02;;;;;;;7.50;6.13;;;7.60;99.90;;;;;;5055861;28;20264;-72
2022/03/10 09:39:28;;;;;;;9.47;6.70;;;7.70;99.90;;;;;;5052188;28;20183;-72
2022/03/10 09:41:57;;;;;;;10.03;6.40;;;7.80;99.90;;;;;;5084415;28;20174;-73
2022/03/10 09:44:26;;;;;;;8.53;6.43;;;8.00;99.90;;;;;;5051887;28;20262;-71
2022/03/10 09:46:52;;;;;;;8.47;6.57;;;8.10;99.90;;;;;;5053058;28;20187;-72
2022/03/10 09:49:21;;;;;;;11.50;6.80;;;8.20;99.90;;;;;;5052503;28;20203;-71
2022/03/10 09:51:49;;;;;;;8.57;6.30;;;8.20;99.90;;;;;;5052679;28;20183;-72
2022/03/10 09:54:14;;;;;;;10.07;6.97;;;8.30;99.90;;;;;;5051823;28;20195;-72
2022/03/10 09:56:42;;;;;;;11.57;6.30;;;8.40;99.90;;;;;;5050656;28;20215;-72
2022/03/10 09:59:09;;;;;;;9.73;7.07;;;8.40;99.90;;;;;;5052257;28;20249;-73
2022/03/10 10:01:35;;;;;;;9.90;6.47;;;8.50;99.90;;;;;;5052695;28;20183;-72
2022/03/10 10:04:00;;;;;;;9.50;6.73;;;8.60;99.90;;;;;;5050981;28;20191;-72
2022/03/10 10:06:26;;;;;;;8.37;6.23;;;8.70;99.90;;;;;;5050967;28;20179;-73
2022/03/10 10:08:56;;;;;;;9.33;6.50;;;8.80;99.90;;;;;;5052581;28;20294;-72
2022/03/10 10:11:34;;;;;;;11.67;7.00;;;8.80;99.90;;;;;;5051777;28;20262;-72
2022/03/10 10:14:00;;;;;;;8.17;6.37;;;8.90;99.90;;;;;;5051799;28;20186;-73
2022/03/10 10:16:26;;;;;;;8.67;6.77;;;9.00;99.90;;;;;;5052794;28;20201;-71
2022/03/10 10:18:56;;;;;;;12.37;6.47;;;9.10;99.90;;;;;;5051048;28;20252;-72
2022/03/10 10:21:23;;;;;;;8.60;6.60;;;9.20;99.90;;;;;;5051148;28;20565;-72
2022/03/10 10:23:50;;;;;;;9.60;6.53;;;9.40;99.90;;;;;;5068724;28;20198;-73
2022/03/10 10:26:16;;;;;;;11.00;6.73;;;9.40;99.90;;;;;;5050993;28;20195;-72
2022/03/10 10:28:45;;;;;;;9.37;6.97;;;9.50;99.90;;;;;;5063630;28;20213;-72
2022/03/10 10:31:13;;;;;;;8.73;7.00;;;9.50;99.90;;;;;;5048260;28;20183;-71
2022/03/10 10:34:05;;;;;;;10.97;6.90;;;9.60;99.90;;;;;;5049653;28;20214;-72
2022/03/10 10:36:33;;;;;;;9.43;7.00;;;9.80;99.90;;;;;;5042583;28;20246;-71
2022/03/10 10:39:16;;;;;;;10.37;7.20;;;9.80;99.90;;;;;;5051528;28;20191;-71
2022/03/10 10:41:43;;;;;;;11.17;7.37;;;9.90;99.90;;;;;;5048910;28;20186;-72
2022/03/10 10:44:12;;;;;;;10.30;6.73;;;10.00;99.90;;;;;;5068877;28;20182;-72
2022/03/10 10:46:46;;;;;;;9.30;6.67;;;10.10;99.90;;;;;;5053853;28;20183;-72
2022/03/10 10:49:16;;;;;;;11.50;7.27;;;10.30;99.90;;;;;;5070249;28;20313;-73
2022/03/10 10:51:48;;;;;;;9.73;6.60;;;10.40;99.90;;;;;;5051335;28;20217;-72
2022/03/10 10:54:20;;;;;;;13.37;6.50;;;10.40;99.90;;;;;;5053123;28;20183;-71
2022/03/10 10:56:49;;;;;;;9.50;6.73;;;10.50;99.90;;;;;;5051380;28;20256;-72
2022/03/10 10:59:36;;;;;;;9.50;6.83;;;10.70;99.90;;;;;;5052054;28;20199;-72
2022/03/10 11:02:15;;;;;;;8.97;6.10;;;10.70;99.90;;;;;;5048474;28;20236;-72
2022/03/10 11:04:46;;;;;;;10.00;6.87;;;10.80;99.90;;;;;;5051090;28;20182;-71
2022/03/10 11:07:13;;;;;;;9.10;6.50;;;11.00;99.90;;;;;;5053958;28;20197;-70
2022/03/10 11:09:41;;;;;;;8.73;6.53;;;11.10;99.90;;;;;;5051164;28;20186;-72
2022/03/10 11:12:09;;;;;;;12.40;6.57;;;11.20;99.90;;;;;;5051806;28;20276;-72
2022/03/10 11:14:35;;;;;;;10.20;7.03;;;11.20;99.90;;;;;;5051111;28;20186;-71
2022/03/10 11:17:01;;;;;;;7.00;6.10;;;11.30;99.90;;;;;;5068537;28;20210;-72
2022/03/10 11:19:35;;;;;;;9.27;6.83;;;11.30;99.90;;;;;;5046239;28;20186;-71
2022/03/10 11:22:22;;;;;;;8.77;6.37;;;11.40;99.90;;;;;;5052301;28;20262;-71
2022/03/10 11:25:38;;;;;;;8.17;6.43;;;11.50;99.90;;;;;;5046876;28;20290;-72
2022/03/10 11:28:27;;;;;;;11.20;7.03;;;11.60;99.90;;;;;;4988060;28;20226;-72
2022/03/10 11:30:59;;;;;;;10.40;6.87;;;11.70;99.90;;;;;;5041656;28;20206;-72
2022/03/10 11:33:34;;;;;;;8.90;6.47;;;11.70;99.90;;;;;;5041782;28;20190;-72
2022/03/10 11:36:00;;;;;;;7.93;6.33;;;11.80;99.90;;;;;;5042010;28;20259;-72
2022/03/10 11:38:51;;;;;;;10.00;6.93;;;11.90;99.90;;;;;;5043685;28;20204;-71
2022/03/10 11:41:18;;;;;;;7.83;6.00;;;12.00;99.90;;;;;;5041975;28;20256;-71
2022/03/10 11:43:59;;;;;;;9.17;7.03;;;12.10;99.90;;;;;;5042794;28;20203;-71
2022/03/10 11:46:26;;;;;;;10.27;6.67;;;12.10;99.90;;;;;;5042307;28;20206;-72
2022/03/10 11:49:15;;;;;;;10.13;6.27;;;12.10;99.90;;;;;;5060077;28;20270;-71
2022/03/10 11:51:51;;;;;;;7.93;5.70;;;12.10;99.90;;;;;;5039009;28;20209;-71
2022/03/10 11:54:28;;;;;;;7.77;6.17;;;12.10;99.90;;;;;;5056911;28;20183;-71
2022/03/10 11:56:54;;;;;;;9.80;6.20;;;12.20;99.90;;;;;;5042384;28;20685;-72
2022/03/10 11:59:24;;;;;;;7.53;6.00;;;12.20;99.90;;;;;;5063286;28;20205;-72
2022/03/10 12:01:50;;;;;;;6.37;5.60;;;12.40;99.90;;;;;;5064631;28;20244;-73
2022/03/10 12:04:17;;;;;;;9.10;5.83;;;12.50;99.90;;;;;;5046141;28;20183;-72
2022/03/10 12:06:57;;;;;;;8.93;5.63;;;12.60;99.90;;;;;;5045936;28;20254;-72
2022/03/10 12:09:39;;;;;;;7.77;5.80;;;12.70;99.90;;;;;;5045861;28;20260;-72
2022/03/10 12:12:25;;;;;;;8.67;6.13;;;12.90;99.90;;;;;;5078538;28;20182;-73
2022/03/10 12:14:55;;;;;;;8.37;6.20;;;12.90;99.90;;;;;;5046782;28;20193;-72
2022/03/10 12:17:44;;;;;;;8.37;6.33;;;13.00;99.90;;;;;;5045573;28;20269;-72
2022/03/10 12:20:17;;;;;;;7.50;6.00;;;13.00;99.90;;;;;;5062491;28;20175;-72
2022/03/10 12:23:25;;;;;;;7.77;6.10;;;13.00;99.90;;;;;;5045203;28;20260;-71
2022/03/10 12:25:53;;;;;;;9.07;6.70;;;13.10;99.90;;;;;;5039522;28;20183;-72
2022/03/10 12:28:24;;;;;;;10.40;5.67;;;13.10;99.90;;;;;;5039743;28;20252;-72
2022/03/10 12:31:12;;;;;;;9.43;6.60;;;13.20;99.90;;;;;;5042324;28;20208;-72
2022/03/10 12:33:46;;;;;;;7.37;5.67;;;13.10;99.90;;;;;;5044366;28;20187;-72
2022/03/10 12:36:15;;;;;;;9.80;6.63;;;13.10;99.90;;;;;;5057312;28;20629;-72
2022/03/10 12:38:46;;;;;;;7.07;6.00;;;13.10;99.90;;;;;;5041522;28;20202;-72
2022/03/10 12:41:17;;;;;;;9.30;6.93;;;13.10;99.90;;;;;;5042831;28;20451;-71
2022/03/10 12:43:53;;;;;;;8.30;6.30;;;13.10;99.90;;;;;;5063112;28;20183;-72
2022/03/10 12:46:20;;;;;;;7.10;6.00;;;13.20;99.90;;;;;;5046744;28;20190;-72
2022/03/10 12:48:58;;;;;;;9.53;6.03;;;13.30;99.90;;;;;;5047177;28;20388;-73
2022/03/10 12:51:29;;;;;;;9.40;6.20;;;13.30;99.90;;;;;;5065957;28;20178;-72
2022/03/10 12:53:57;;;;;;;6.50;5.47;;;13.30;99.90;;;;;;5064048;28;20183;-72
2022/03/10 12:56:23;;;;;;;9.77;5.70;;;13.40;99.90;;;;;;5046063;28;20245;-71